Time;durP1;ratioP1;P1;durP2;ratioP2;P2;SDS_P1;SDS_P2;PMS_P1;PMS_P2;Temp;Humidity;BMP_temperature;BMP_pressure;BME280_temperature;BME280_humidity;BME280_pressure;Samples;Min_cycle;Max_cycle;Signal;HPM_P1;HPM_P2
2024/01/23 00:01:16;;;;;;;0.52;0.52;;;;;;;;;;5033255;28;20049;-76
2024/01/23 00:03:43;;;;;;;0.57;0.57;;;;;;;;;;5037016;28;20274;-76
2024/01/23 00:06:11;;;;;;;0.30;0.30;;;;;;;;;;5038453;28;20122;-73
2024/01/23 00:08:38;;;;;;;4.80;0.88;;;;;;;;;;5036409;28;20037;-73
2024/01/23 00:11:06;;;;;;;0.25;0.25;;;;;;;;;;5124627;22;20080;-78
2024/01/23 00:13:34;;;;;;;0.70;0.57;;;;;;;;;;5063358;28;20299;-78
2024/01/23 00:16:02;;;;;;;0.10;0.10;;;;;;;;;;5049832;28;20072;-78
2024/01/23 00:18:29;;;;;;;0.45;0.45;;;;;;;;;;5049912;28;20151;-78
2024/01/23 00:20:57;;;;;;;0.20;0.20;;;;;;;;;;5035771;28;20145;-78
2024/01/23 00:23:25;;;;;;;0.20;0.20;;;;;;;;;;5041230;28;20045;-78
2024/01/23 00:25:53;;;;;;;0.10;0.10;;;;;;;;;;5043102;28;20067;-78
2024/01/23 00:28:21;;;;;;;0.08;0.08;;;;;;;;;;5053243;28;20122;-79
2024/01/23 00:30:48;;;;;;;1.77;0.57;;;;;;;;;;5044662;28;20491;-78
2024/01/23 00:33:16;;;;;;;1.30;1.25;;;;;;;;;;5041956;28;20572;-78
2024/01/23 00:35:43;;;;;;;0.70;0.52;;;;;;;;;;5041265;28;20059;-79
2024/01/23 00:38:11;;;;;;;0.10;0.10;;;;;;;;;;5045023;28;20352;-79
2024/01/23 00:40:38;;;;;;;0.88;0.88;;;;;;;;;;5049248;28;20115;-79
2024/01/23 00:43:06;;;;;;;0.10;0.10;;;;;;;;;;5045760;28;20729;-79
2024/01/23 00:45:34;;;;;;;0.10;0.10;;;;;;;;;;5047304;28;20048;-79
2024/01/23 00:48:02;;;;;;;0.10;0.10;;;;;;;;;;5048548;28;20087;-78
2024/01/23 00:50:29;;;;;;;0.43;0.43;;;;;;;;;;5034768;28;20503;-78
2024/01/23 00:52:57;;;;;;;9.25;4.88;;;;;;;;;;5047732;28;20055;-78
2024/01/23 00:55:24;;;;;;;0.10;0.10;;;;;;;;;;5045972;28;20087;-78
2024/01/23 00:57:52;;;;;;;0.10;0.10;;;;;;;;;;5039911;28;20040;-78
2024/01/23 01:00:20;;;;;;;0.17;0.17;;;;;;;;;;5048876;28;20091;-78
2024/01/23 01:02:47;;;;;;;0.10;0.10;;;;;;;;;;5046135;28;20653;-78
2024/01/23 01:05:15;;;;;;;0.55;0.55;;;;;;;;;;5047853;28;20049;-78
2024/01/23 01:07:43;;;;;;;0.65;0.38;;;;;;;;;;5037533;28;20048;-78
2024/01/23 01:10:11;;;;;;;0.10;0.10;;;;;;;;;;5031354;28;20732;-78
2024/01/23 01:12:38;;;;;;;0.73;0.57;;;;;;;;;;5051098;28;20033;-78
2024/01/23 01:15:06;;;;;;;0.17;0.17;;;;;;;;;;5046718;28;20067;-78
2024/01/23 01:17:34;;;;;;;3.35;1.05;;;;;;;;;;5048751;28;20040;-78
2024/01/23 01:20:01;;;;;;;0.55;0.55;;;;;;;;;;5050348;28;20395;-78
2024/01/23 01:22:29;;;;;;;1.00;0.90;;;;;;;;;;5049316;28;20130;-78
2024/01/23 01:24:56;;;;;;;0.00;0.00;;;;;;;;;;5043425;28;20060;-78
2024/01/23 01:27:24;;;;;;;0.10;0.10;;;;;;;;;;5045334;28;20051;-78
2024/01/23 01:29:51;;;;;;;0.13;0.13;;;;;;;;;;5053466;28;20132;-78
2024/01/23 01:32:19;;;;;;;0.20;0.20;;;;;;;;;;5039416;28;20064;-78
2024/01/23 01:34:46;;;;;;;0.10;0.10;;;;;;;;;;5044519;28;20080;-78
2024/01/23 01:37:14;;;;;;;0.10;0.10;;;;;;;;;;5035989;28;20045;-79
2024/01/23 01:39:42;;;;;;;0.50;0.50;;;;;;;;;;5043776;28;20044;-78
2024/01/23 01:42:10;;;;;;;0.10;0.10;;;;;;;;;;5043058;28;20091;-78
2024/01/23 01:44:37;;;;;;;0.10;0.10;;;;;;;;;;5047149;28;20064;-78
2024/01/23 01:47:05;;;;;;;0.10;0.10;;;;;;;;;;5040633;28;20056;-78
2024/01/23 01:49:33;;;;;;;0.70;0.70;;;;;;;;;;5038320;28;20607;-78
2024/01/23 01:52:01;;;;;;;0.55;0.55;;;;;;;;;;5043547;28;20049;-79
2024/01/23 01:54:29;;;;;;;0.65;0.65;;;;;;;;;;5034478;28;20117;-78
2024/01/23 01:57:00;;;;;;;1.38;0.95;;;;;;;;;;5046417;28;20049;-78
2024/01/23 01:59:31;;;;;;;0.10;0.10;;;;;;;;;;5022155;28;20114;-78
2024/01/23 02:02:01;;;;;;;3.00;1.05;;;;;;;;;;5036597;28;20044;-78
2024/01/23 02:04:29;;;;;;;0.10;0.10;;;;;;;;;;5045907;28;20052;-78
2024/01/23 02:06:56;;;;;;;0.25;0.25;;;;;;;;;;5042169;28;20096;-78
2024/01/23 02:09:24;;;;;;;0.10;0.10;;;;;;;;;;5037821;28;20112;-79
2024/01/23 02:11:55;;;;;;;0.10;0.10;;;;;;;;;;5043201;28;20071;-78
2024/01/23 02:14:26;;;;;;;0.10;0.10;;;;;;;;;;5048384;28;20037;-78
2024/01/23 02:16:54;;;;;;;0.10;0.10;;;;;;;;;;5045303;28;20075;-78
2024/01/23 02:19:21;;;;;;;0.20;0.20;;;;;;;;;;5046865;28;20048;-78
2024/01/23 02:21:49;;;;;;;0.10;0.10;;;;;;;;;;5046895;28;20049;-78
2024/01/23 02:24:16;;;;;;;0.13;0.13;;;;;;;;;;5041801;28;20033;-78
2024/01/23 02:26:43;;;;;;;0.10;0.10;;;;;;;;;;5038543;28;20095;-78
2024/01/23 02:29:11;;;;;;;0.10;0.10;;;;;;;;;;5039130;28;20055;-79
2024/01/23 02:31:39;;;;;;;0.10;0.10;;;;;;;;;;5049482;28;20534;-78
2024/01/23 02:34:07;;;;;;;0.32;0.32;;;;;;;;;;5040693;28;20355;-78
2024/01/23 02:36:39;;;;;;;0.10;0.10;;;;;;;;;;5041839;28;20569;-78
2024/01/23 02:39:07;;;;;;;1.65;1.17;;;;;;;;;;5061150;28;20806;-78
2024/01/23 02:41:35;;;;;;;0.40;0.40;;;;;;;;;;5047675;28;20040;-78
2024/01/23 02:44:02;;;;;;;0.20;0.20;;;;;;;;;;5044846;28;20471;-78
2024/01/23 02:46:29;;;;;;;0.10;0.10;;;;;;;;;;5040816;28;20053;-79
2024/01/23 02:48:57;;;;;;;6.57;4.43;;;;;;;;;;5035384;28;20053;-78
2024/01/23 02:51:24;;;;;;;0.20;0.20;;;;;;;;;;5039842;28;20045;-78
2024/01/23 02:53:52;;;;;;;0.85;0.85;;;;;;;;;;5043754;28;20053;-79
2024/01/23 02:56:19;;;;;;;1.23;1.23;;;;;;;;;;5038907;28;20056;-78
2024/01/23 02:58:47;;;;;;;1.02;1.02;;;;;;;;;;5046075;28;20063;-79
2024/01/23 03:01:14;;;;;;;2.13;2.03;;;;;;;;;;5034336;28;20052;-79
2024/01/23 03:03:42;;;;;;;3.92;2.97;;;;;;;;;;5041481;28;20052;-79
2024/01/23 03:06:10;;;;;;;0.32;0.32;;;;;;;;;;5046111;28;20068;-79
2024/01/23 03:08:37;;;;;;;0.22;0.22;;;;;;;;;;5037984;28;20041;-79
2024/01/23 03:11:05;;;;;;;0.10;0.10;;;;;;;;;;5047456;28;20553;-79
2024/01/23 03:13:33;;;;;;;0.15;0.15;;;;;;;;;;5039770;28;20730;-79
2024/01/23 03:16:00;;;;;;;0.10;0.10;;;;;;;;;;5043241;28;20045;-79
2024/01/23 03:18:28;;;;;;;0.10;0.10;;;;;;;;;;5049498;28;20049;-79
2024/01/23 03:20:55;;;;;;;0.10;0.10;;;;;;;;;;5049417;28;20053;-79
2024/01/23 03:23:23;;;;;;;0.20;0.20;;;;;;;;;;5059688;28;20128;-79
2024/01/23 03:25:50;;;;;;;0.52;0.35;;;;;;;;;;5056893;28;20224;-79
2024/01/23 03:28:18;;;;;;;0.43;0.43;;;;;;;;;;5051069;28;20044;-79
2024/01/23 03:30:45;;;;;;;0.10;0.10;;;;;;;;;;5045896;28;20491;-79
2024/01/23 03:33:13;;;;;;;3.20;3.03;;;;;;;;;;5046514;28;20415;-79
2024/01/23 03:35:40;;;;;;;0.20;0.20;;;;;;;;;;5044577;28;20517;-79
2024/01/23 03:38:09;;;;;;;0.10;0.10;;;;;;;;;;5051611;28;20033;-79
2024/01/23 03:40:36;;;;;;;0.10;0.10;;;;;;;;;;5043685;28;20156;-79
2024/01/23 03:43:04;;;;;;;0.10;0.10;;;;;;;;;;5057434;28;20080;-78
2024/01/23 03:45:31;;;;;;;1.45;1.45;;;;;;;;;;5045667;28;20049;-79
2024/01/23 03:48:01;;;;;;;0.10;0.10;;;;;;;;;;5049883;28;20083;-79
2024/01/23 03:50:28;;;;;;;0.30;0.30;;;;;;;;;;5046784;28;20040;-79
2024/01/23 03:52:56;;;;;;;0.10;0.10;;;;;;;;;;5040887;28;20048;-79
2024/01/23 03:55:23;;;;;;;0.10;0.10;;;;;;;;;;5048342;28;20061;-79
2024/01/23 03:57:51;;;;;;;0.10;0.10;;;;;;;;;;5043802;28;20579;-79
2024/01/23 04:00:19;;;;;;;0.10;0.10;;;;;;;;;;5043583;28;20139;-79
2024/01/23 04:02:48;;;;;;;0.10;0.10;;;;;;;;;;5044398;28;20506;-79
2024/01/23 04:05:16;;;;;;;0.20;0.20;;;;;;;;;;5045542;28;20453;-79
2024/01/23 04:07:43;;;;;;;0.13;0.13;;;;;;;;;;5052513;28;20052;-79
2024/01/23 04:10:11;;;;;;;0.20;0.20;;;;;;;;;;5037733;28;20046;-79
2024/01/23 04:12:39;;;;;;;0.10;0.10;;;;;;;;;;5056161;28;20088;-79
2024/01/23 04:15:07;;;;;;;0.10;0.10;;;;;;;;;;5048369;28;20102;-79
2024/01/23 04:17:34;;;;;;;0.10;0.10;;;;;;;;;;5057990;28;20048;-79
2024/01/23 04:20:02;;;;;;;0.10;0.10;;;;;;;;;;5053261;28;20522;-79
2024/01/23 04:22:29;;;;;;;0.10;0.10;;;;;;;;;;5043171;28;20053;-80
2024/01/23 04:24:57;;;;;;;0.10;0.10;;;;;;;;;;5050616;28;20134;-79
2024/01/23 04:27:24;;;;;;;0.00;0.00;;;;;;;;;;5056286;28;20070;-79
2024/01/23 04:29:52;;;;;;;0.15;0.15;;;;;;;;;;5042715;28;20459;-79
2024/01/23 04:32:20;;;;;;;0.10;0.10;;;;;;;;;;5047366;28;20350;-79
2024/01/23 04:34:47;;;;;;;0.10;0.10;;;;;;;;;;5056304;28;20041;-79
2024/01/23 04:37:15;;;;;;;0.10;0.10;;;;;;;;;;5042130;28;20099;-79
2024/01/23 04:39:46;;;;;;;0.10;0.10;;;;;;;;;;5046697;28;20056;-79
2024/01/23 04:42:14;;;;;;;0.10;0.10;;;;;;;;;;5041692;28;20052;-79
2024/01/23 04:44:41;;;;;;;0.20;0.20;;;;;;;;;;5049353;28;20041;-79
2024/01/23 04:47:09;;;;;;;0.95;0.95;;;;;;;;;;5038991;28;20045;-79
2024/01/23 04:49:36;;;;;;;0.25;0.25;;;;;;;;;;5051121;28;20110;-79
2024/01/23 04:52:04;;;;;;;0.30;0.30;;;;;;;;;;5055686;28;20044;-79
2024/01/23 04:54:31;;;;;;;0.10;0.10;;;;;;;;;;5038888;28;20534;-79
2024/01/23 04:56:59;;;;;;;0.20;0.20;;;;;;;;;;5041602;28;20080;-79
2024/01/23 04:59:27;;;;;;;0.10;0.10;;;;;;;;;;5045985;28;20052;-79
2024/01/23 05:01:54;;;;;;;0.20;0.20;;;;;;;;;;5038873;28;20117;-79
2024/01/23 05:04:22;;;;;;;0.10;0.10;;;;;;;;;;5056731;28;20033;-79
2024/01/23 05:06:49;;;;;;;0.10;0.10;;;;;;;;;;5050949;28;20400;-79
2024/01/23 05:09:17;;;;;;;0.30;0.30;;;;;;;;;;5045095;28;20040;-79
2024/01/23 05:11:44;;;;;;;0.00;0.00;;;;;;;;;;5038863;28;20550;-79
2024/01/23 05:14:12;;;;;;;0.50;0.50;;;;;;;;;;5056604;28;20465;-79
2024/01/23 05:16:40;;;;;;;0.20;0.20;;;;;;;;;;5034948;28;20281;-79
2024/01/23 05:19:08;;;;;;;0.20;0.20;;;;;;;;;;5040608;28;20044;-79
2024/01/23 05:21:36;;;;;;;0.15;0.15;;;;;;;;;;5051164;28;20037;-79
2024/01/23 05:24:03;;;;;;;0.20;0.20;;;;;;;;;;5041415;28;20073;-79
2024/01/23 05:26:31;;;;;;;0.10;0.10;;;;;;;;;;5045303;28;20248;-80
2024/01/23 05:28:58;;;;;;;0.10;0.10;;;;;;;;;;5046435;28;20046;-79
2024/01/23 05:31:26;;;;;;;0.20;0.20;;;;;;;;;;5039193;28;20102;-79
2024/01/23 05:33:53;;;;;;;0.20;0.20;;;;;;;;;;5045438;28;20045;-80
2024/01/23 05:36:20;;;;;;;0.20;0.20;;;;;;;;;;5045451;28;20045;-80
2024/01/23 05:38:48;;;;;;;0.43;0.43;;;;;;;;;;5039131;28;20045;-79
2024/01/23 05:41:17;;;;;;;0.28;0.28;;;;;;;;;;5034606;28;20049;-79
2024/01/23 05:43:45;;;;;;;0.10;0.10;;;;;;;;;;5036833;28;20045;-81
2024/01/23 05:46:13;;;;;;;0.35;0.35;;;;;;;;;;5012524;28;20099;-79
2024/01/23 05:48:41;;;;;;;1.40;1.30;;;;;;;;;;5044545;28;20052;-80
2024/01/23 05:51:08;;;;;;;0.10;0.10;;;;;;;;;;5040946;28;20102;-80
2024/01/23 05:53:36;;;;;;;0.20;0.20;;;;;;;;;;5033779;28;20048;-79
2024/01/23 05:56:04;;;;;;;0.10;0.10;;;;;;;;;;5036236;28;20077;-80
2024/01/23 05:58:32;;;;;;;0.10;0.10;;;;;;;;;;5044158;28;20450;-79
2024/01/23 06:01:00;;;;;;;0.10;0.10;;;;;;;;;;5038735;28;20063;-79
2024/01/23 06:03:27;;;;;;;0.10;0.10;;;;;;;;;;5046399;28;20584;-81
2024/01/23 06:06:00;;;;;;;0.10;0.10;;;;;;;;;;5042489;28;20053;-79
2024/01/23 06:08:42;;;;;;;0.93;0.63;;;;;;;;;;5020763;28;20077;-80
2024/01/23 06:11:10;;;;;;;0.30;0.30;;;;;;;;;;5045149;22;20834;-72
2024/01/23 06:13:38;;;;;;;4.18;0.73;;;;;;;;;;5004524;28;20052;-73
2024/01/23 06:16:07;;;;;;;0.38;0.38;;;;;;;;;;5008455;28;20052;-75
2024/01/23 06:18:35;;;;;;;0.65;0.32;;;;;;;;;;5003756;28;20132;-74
2024/01/23 06:21:03;;;;;;;0.40;0.40;;;;;;;;;;5011880;28;20049;-73
2024/01/23 06:23:33;;;;;;;0.25;0.25;;;;;;;;;;5016709;28;20128;-73
2024/01/23 06:26:01;;;;;;;0.43;0.40;;;;;;;;;;5014431;28;20558;-74
2024/01/23 06:28:28;;;;;;;0.20;0.20;;;;;;;;;;5008380;28;20060;-73
2024/01/23 06:30:56;;;;;;;0.20;0.20;;;;;;;;;;5007373;28;20046;-73
2024/01/23 06:33:23;;;;;;;0.10;0.10;;;;;;;;;;5014933;28;20069;-73
2024/01/23 06:35:51;;;;;;;0.25;0.25;;;;;;;;;;5015455;28;20458;-73
2024/01/23 06:38:19;;;;;;;0.10;0.10;;;;;;;;;;5014813;28;20049;-73
2024/01/23 06:40:46;;;;;;;2.92;1.13;;;;;;;;;;5017799;28;20072;-74
2024/01/23 06:43:14;;;;;;;0.10;0.10;;;;;;;;;;5003599;28;20392;-73
2024/01/23 06:45:41;;;;;;;0.10;0.10;;;;;;;;;;5008527;28;20042;-73
2024/01/23 06:48:09;;;;;;;0.10;0.10;;;;;;;;;;5011381;28;20056;-74
2024/01/23 06:50:36;;;;;;;0.20;0.20;;;;;;;;;;4980757;28;26053;-73
2024/01/23 06:53:04;;;;;;;0.10;0.10;;;;;;;;;;5017141;28;20084;-73
2024/01/23 06:55:31;;;;;;;0.10;0.10;;;;;;;;;;5015492;28;20192;-73
2024/01/23 06:57:59;;;;;;;0.80;0.57;;;;;;;;;;5015421;28;20062;-73
2024/01/23 07:00:27;;;;;;;0.20;0.20;;;;;;;;;;5014399;28;20076;-73
2024/01/23 07:02:55;;;;;;;0.10;0.10;;;;;;;;;;5021049;28;20049;-73
2024/01/23 07:05:23;;;;;;;0.30;0.30;;;;;;;;;;5023538;28;20053;-73
2024/01/23 07:07:50;;;;;;;0.10;0.10;;;;;;;;;;5021088;28;20037;-73
2024/01/23 07:10:19;;;;;;;0.10;0.10;;;;;;;;;;5015547;28;20056;-73
2024/01/23 07:12:46;;;;;;;0.20;0.20;;;;;;;;;;5021013;28;20427;-74
2024/01/23 07:15:14;;;;;;;0.10;0.10;;;;;;;;;;5022971;28;20542;-74
2024/01/23 07:17:41;;;;;;;0.30;0.30;;;;;;;;;;5017742;28;20045;-74
2024/01/23 07:20:10;;;;;;;0.35;0.35;;;;;;;;;;4996974;28;20049;-74
2024/01/23 07:22:37;;;;;;;0.30;0.20;;;;;;;;;;5020825;28;20446;-73
2024/01/23 07:25:05;;;;;;;2.38;0.40;;;;;;;;;;5022758;28;20060;-73
2024/01/23 07:27:35;;;;;;;3.50;0.95;;;;;;;;;;5009692;28;20050;-74
2024/01/23 07:30:04;;;;;;;0.63;0.30;;;;;;;;;;5017492;28;20061;-73
2024/01/23 07:32:32;;;;;;;0.43;0.43;;;;;;;;;;5023571;28;20049;-73
2024/01/23 07:35:11;;;;;;;0.52;0.40;;;;;;;;;;5004537;28;20107;-73
2024/01/23 07:37:42;;;;;;;0.50;0.50;;;;;;;;;;5021553;28;20046;-73
2024/01/23 07:40:16;;;;;;;0.35;0.35;;;;;;;;;;5025972;28;20123;-73
2024/01/23 07:42:44;;;;;;;0.65;0.65;;;;;;;;;;5021433;28;20045;-73
2024/01/23 07:45:13;;;;;;;0.25;0.25;;;;;;;;;;5015400;28;20299;-72
2024/01/23 07:47:40;;;;;;;0.73;0.35;;;;;;;;;;5017437;28;20041;-73
2024/01/23 07:50:08;;;;;;;0.20;0.20;;;;;;;;;;5022355;28;20132;-73
2024/01/23 07:52:36;;;;;;;2.35;1.25;;;;;;;;;;5023819;28;20312;-73
2024/01/23 07:55:04;;;;;;;0.73;0.73;;;;;;;;;;5020615;28;20053;-73
2024/01/23 07:57:31;;;;;;;0.47;0.47;;;;;;;;;;5018435;28;20049;-73
2024/01/23 07:59:59;;;;;;;0.10;0.10;;;;;;;;;;5017291;28;20053;-73
2024/01/23 08:02:27;;;;;;;0.50;0.50;;;;;;;;;;5002996;28;20328;-74
2024/01/23 08:04:55;;;;;;;0.40;0.40;;;;;;;;;;5016579;28;20049;-74
2024/01/23 08:07:22;;;;;;;0.20;0.20;;;;;;;;;;5022741;28;20570;-73
2024/01/23 08:09:50;;;;;;;0.10;0.10;;;;;;;;;;5018525;28;20498;-74
2024/01/23 08:12:18;;;;;;;0.30;0.30;;;;;;;;;;5005442;28;20061;-73
2024/01/23 08:14:46;;;;;;;0.20;0.20;;;;;;;;;;4998839;28;20049;-73
2024/01/23 08:17:14;;;;;;;0.17;0.17;;;;;;;;;;5021704;28;20047;-73
2024/01/23 08:19:41;;;;;;;0.50;0.50;;;;;;;;;;5020851;28;22046;-72
2024/01/23 08:22:09;;;;;;;5.82;0.45;;;;;;;;;;5021838;28;20033;-73
2024/01/23 08:24:36;;;;;;;0.40;0.40;;;;;;;;;;5017356;28;20069;-73
2024/01/23 08:27:04;;;;;;;0.10;0.10;;;;;;;;;;5022658;28;20038;-72
2024/01/23 08:29:32;;;;;;;1.38;0.30;;;;;;;;;;5019653;28;20134;-73
2024/01/23 08:32:00;;;;;;;0.20;0.20;;;;;;;;;;5030870;28;20561;-73
2024/01/23 08:34:28;;;;;;;0.55;0.55;;;;;;;;;;5020411;28;20612;-74
2024/01/23 08:36:55;;;;;;;0.10;0.10;;;;;;;;;;5010197;28;20041;-73
2024/01/23 08:39:22;;;;;;;0.30;0.30;;;;;;;;;;5015828;28;20556;-72
2024/01/23 08:41:53;;;;;;;0.17;0.17;;;;;;;;;;5020408;28;20045;-73
2024/01/23 08:44:21;;;;;;;0.10;0.10;;;;;;;;;;5020871;28;20049;-73
2024/01/23 08:46:48;;;;;;;0.10;0.10;;;;;;;;;;5021705;28;20045;-73
2024/01/23 08:49:16;;;;;;;0.22;0.22;;;;;;;;;;5021066;28;20072;-74
2024/01/23 08:51:44;;;;;;;0.15;0.15;;;;;;;;;;5021780;28;20042;-73
2024/01/23 08:54:18;;;;;;;2.08;1.02;;;;;;;;;;5020805;28;20113;-73
2024/01/23 08:56:55;;;;;;;0.10;0.10;;;;;;;;;;5012403;28;20132;-73
2024/01/23 08:59:24;;;;;;;0.13;0.13;;;;;;;;;;5018758;28;20056;-72
2024/01/23 09:01:51;;;;;;;0.10;0.10;;;;;;;;;;5017148;28;20041;-73
2024/01/23 09:04:19;;;;;;;0.10;0.10;;;;;;;;;;4994728;28;20110;-72
2024/01/23 09:06:46;;;;;;;0.45;0.45;;;;;;;;;;5017617;28;20038;-73
2024/01/23 09:09:15;;;;;;;0.20;0.20;;;;;;;;;;5014910;28;20058;-73
2024/01/23 09:11:43;;;;;;;0.10;0.10;;;;;;;;;;5018271;28;20172;-73
2024/01/23 09:14:11;;;;;;;0.10;0.10;;;;;;;;;;5017696;28;20053;-73
2024/01/23 09:16:38;;;;;;;1.25;0.55;;;;;;;;;;5020219;28;20555;-73
2024/01/23 09:19:06;;;;;;;0.15;0.15;;;;;;;;;;5019023;28;20049;-73
2024/01/23 09:21:33;;;;;;;0.15;0.15;;;;;;;;;;5016942;28;20052;-73
2024/01/23 09:24:01;;;;;;;0.30;0.30;;;;;;;;;;5021244;28;20057;-73
2024/01/23 09:26:29;;;;;;;0.20;0.20;;;;;;;;;;4992488;28;20515;-73
2024/01/23 09:28:56;;;;;;;0.35;0.35;;;;;;;;;;5017102;28;20502;-73
2024/01/23 09:31:24;;;;;;;0.20;0.20;;;;;;;;;;5012246;28;20095;-73
2024/01/23 09:33:52;;;;;;;0.10;0.10;;;;;;;;;;5015725;28;20053;-74
2024/01/23 09:36:19;;;;;;;0.10;0.10;;;;;;;;;;5017548;28;20048;-73
2024/01/23 09:38:51;;;;;;;0.52;0.52;;;;;;;;;;5022279;28;20045;-73
2024/01/23 09:41:19;;;;;;;1.85;0.52;;;;;;;;;;5017846;28;20503;-73
2024/01/23 09:43:47;;;;;;;0.10;0.10;;;;;;;;;;5021069;28;20391;-74
2024/01/23 09:46:15;;;;;;;0.20;0.20;;;;;;;;;;5015721;28;21790;-73
2024/01/23 09:48:42;;;;;;;0.40;0.40;;;;;;;;;;5021368;28;20049;-73
2024/01/23 09:51:14;;;;;;;0.70;0.70;;;;;;;;;;5015555;28;20045;-75
2024/01/23 09:53:42;;;;;;;0.60;0.45;;;;;;;;;;5021834;28;20045;-73
2024/01/23 09:56:11;;;;;;;0.10;0.10;;;;;;;;;;5016911;28;20049;-73
2024/01/23 09:58:38;;;;;;;0.10;0.10;;;;;;;;;;5021230;28;20665;-72
2024/01/23 10:01:06;;;;;;;0.10;0.10;;;;;;;;;;5019861;28;20041;-73
2024/01/23 10:03:34;;;;;;;0.20;0.20;;;;;;;;;;5011735;28;20120;-72
2024/01/23 10:06:04;;;;;;;0.68;0.68;;;;;;;;;;5017342;28;20109;-72
2024/01/23 10:08:32;;;;;;;0.10;0.10;;;;;;;;;;5023038;28;20044;-73
2024/01/23 10:11:02;;;;;;;0.55;0.50;;;;;;;;;;5018414;28;20045;-73
2024/01/23 10:13:30;;;;;;;0.10;0.10;;;;;;;;;;5016593;28;20049;-72
2024/01/23 10:15:57;;;;;;;15.40;4.63;;;;;;;;;;5022405;28;20510;-73
2024/01/23 10:18:25;;;;;;;0.20;0.20;;;;;;;;;;5015335;28;20041;-73
2024/01/23 10:20:56;;;;;;;0.10;0.10;;;;;;;;;;5010166;28;20053;-73
2024/01/23 10:23:23;;;;;;;0.55;0.55;;;;;;;;;;5018966;28;20045;-72
2024/01/23 10:25:51;;;;;;;0.10;0.10;;;;;;;;;;5013434;28;20887;-72
2024/01/23 10:28:19;;;;;;;0.10;0.10;;;;;;;;;;5015528;28;20049;-74
2024/01/23 10:30:47;;;;;;;0.10;0.10;;;;;;;;;;5020312;28;20392;-73
2024/01/23 10:33:14;;;;;;;0.13;0.13;;;;;;;;;;5014912;28;20050;-73
2024/01/23 10:35:42;;;;;;;0.40;0.40;;;;;;;;;;5014278;28;20042;-74
2024/01/23 10:38:14;;;;;;;0.57;0.30;;;;;;;;;;5035795;28;20089;-73
2024/01/23 10:40:41;;;;;;;0.10;0.10;;;;;;;;;;5018162;28;20068;-74
2024/01/23 10:43:09;;;;;;;0.47;0.47;;;;;;;;;;5019252;28;20080;-73
2024/01/23 10:45:37;;;;;;;1.60;1.40;;;;;;;;;;5022180;28;20041;-73
2024/01/23 10:48:07;;;;;;;0.13;0.13;;;;;;;;;;5020216;28;20049;-73
2024/01/23 10:50:34;;;;;;;2.45;0.95;;;;;;;;;;4997995;28;20045;-73
2024/01/23 10:53:04;;;;;;;0.20;0.20;;;;;;;;;;5036912;28;20057;-73
2024/01/23 10:55:39;;;;;;;0.17;0.17;;;;;;;;;;5020237;28;20702;-73
2024/01/23 10:58:10;;;;;;;0.10;0.10;;;;;;;;;;5015986;28;20278;-73
2024/01/23 11:00:38;;;;;;;0.10;0.10;;;;;;;;;;5017591;28;20799;-73
2024/01/23 11:03:06;;;;;;;0.10;0.10;;;;;;;;;;5019877;28;20065;-73
2024/01/23 11:05:43;;;;;;;0.03;0.03;;;;;;;;;;5020566;28;20041;-73
2024/01/23 11:08:28;;;;;;;0.10;0.10;;;;;;;;;;5018498;28;20532;-74
2024/01/23 11:10:57;;;;;;;0.52;0.52;;;;;;;;;;5017381;28;20068;-74
2024/01/23 11:13:29;;;;;;;0.20;0.20;;;;;;;;;;5010309;28;20064;-73
2024/01/23 11:15:56;;;;;;;0.10;0.10;;;;;;;;;;5019062;28;20053;-74
2024/01/23 11:18:26;;;;;;;0.10;0.10;;;;;;;;;;5013115;28;20050;-74
2024/01/23 11:21:09;;;;;;;0.10;0.10;;;;;;;;;;5021704;28;20857;-74
2024/01/23 11:23:38;;;;;;;0.20;0.20;;;;;;;;;;5019278;28;20050;-74
2024/01/23 11:26:22;;;;;;;0.10;0.10;;;;;;;;;;5017184;28;20442;-74
2024/01/23 11:28:54;;;;;;;0.30;0.30;;;;;;;;;;5020537;28;20123;-73
2024/01/23 11:31:23;;;;;;;0.10;0.10;;;;;;;;;;5015703;28;20129;-74
2024/01/23 11:33:52;;;;;;;0.10;0.10;;;;;;;;;;5021134;28;20065;-73
2024/01/23 11:36:30;;;;;;;0.90;0.20;;;;;;;;;;5017029;28;20052;-74
2024/01/23 11:38:59;;;;;;;0.43;0.43;;;;;;;;;;5022039;28;20074;-73
2024/01/23 11:41:27;;;;;;;0.10;0.10;;;;;;;;;;5021050;28;20073;-74
2024/01/23 11:44:04;;;;;;;0.10;0.10;;;;;;;;;;5022262;28;20099;-74
2024/01/23 11:46:34;;;;;;;0.10;0.10;;;;;;;;;;5023194;28;20052;-74
2024/01/23 11:49:02;;;;;;;0.10;0.10;;;;;;;;;;5040603;28;20052;-74
2024/01/23 11:51:30;;;;;;;2.92;0.90;;;;;;;;;;5020849;28;20045;-74
2024/01/23 11:53:58;;;;;;;0.20;0.20;;;;;;;;;;5014503;28;20077;-74
2024/01/23 11:56:29;;;;;;;0.10;0.10;;;;;;;;;;5003734;28;20132;-74
2024/01/23 11:58:58;;;;;;;1.27;0.60;;;;;;;;;;4993094;28;20643;-72
2024/01/23 12:01:30;;;;;;;4.10;0.80;;;;;;;;;;5019027;28;20207;-73
2024/01/23 12:03:58;;;;;;;0.10;0.10;;;;;;;;;;5023832;28;20545;-73
2024/01/23 12:06:26;;;;;;;0.20;0.20;;;;;;;;;;5000073;28;20045;-74
2024/01/23 12:08:54;;;;;;;0.10;0.10;;;;;;;;;;5015253;28;21361;-73
2024/01/23 12:11:22;;;;;;;0.20;0.20;;;;;;;;;;5050048;22;20040;-85
2024/01/23 12:13:50;;;;;;;2.13;1.08;;;;;;;;;;5093689;28;20047;-85
2024/01/23 12:16:18;;;;;;;11.63;0.88;;;;;;;;;;5095710;28;20040;-87
2024/01/23 12:18:55;;;;;;;1.73;0.77;;;;;;;;;;5096720;28;20040;-85
2024/01/23 12:21:23;;;;;;;0.20;0.20;;;;;;;;;;5085789;28;20051;-85
2024/01/23 12:23:51;;;;;;;0.52;0.35;;;;;;;;;;5086479;28;20055;-84
2024/01/23 12:26:38;;;;;;;1.30;0.30;;;;;;;;;;5081996;28;20076;-85
2024/01/23 12:29:06;;;;;;;3.13;0.73;;;;;;;;;;5076726;28;20098;-85
2024/01/23 12:31:35;;;;;;;0.30;0.30;;;;;;;;;;5088182;28;20417;-85
2024/01/23 12:34:03;;;;;;;0.20;0.20;;;;;;;;;;5084780;28;20405;-85
2024/01/23 12:36:31;;;;;;;0.75;0.70;;;;;;;;;;5083127;28;20258;-84
2024/01/23 12:39:00;;;;;;;0.52;0.52;;;;;;;;;;5088990;28;20524;-85
2024/01/23 12:41:27;;;;;;;2.42;0.73;;;;;;;;;;5081305;28;20068;-84
2024/01/23 12:43:55;;;;;;;0.20;0.20;;;;;;;;;;5091286;28;20082;-83
2024/01/23 12:46:22;;;;;;;0.40;0.40;;;;;;;;;;5081060;28;20036;-85
2024/01/23 12:49:03;;;;;;;0.85;0.85;;;;;;;;;;5086726;28;20048;-85
2024/01/23 12:51:31;;;;;;;0.28;0.28;;;;;;;;;;5083829;28;20048;-85
2024/01/23 12:53:58;;;;;;;0.50;0.47;;;;;;;;;;5081058;28;20048;-84
2024/01/23 12:56:26;;;;;;;0.20;0.20;;;;;;;;;;5079756;28;20049;-85
2024/01/23 12:58:53;;;;;;;1.17;0.68;;;;;;;;;;5081755;28;20067;-85
2024/01/23 13:01:21;;;;;;;0.10;0.10;;;;;;;;;;5076949;28;20047;-85
2024/01/23 13:03:50;;;;;;;0.17;0.17;;;;;;;;;;5089563;28;20279;-85
2024/01/23 13:06:18;;;;;;;0.20;0.20;;;;;;;;;;5080749;28;20098;-85
2024/01/23 13:08:46;;;;;;;0.10;0.10;;;;;;;;;;5088110;28;20048;-84
2024/01/23 13:11:13;;;;;;;0.10;0.10;;;;;;;;;;5068609;28;20048;-84
2024/01/23 13:13:41;;;;;;;0.47;0.47;;;;;;;;;;5080415;28;20090;-85
2024/01/23 13:16:08;;;;;;;1.45;0.73;;;;;;;;;;5068590;28;20082;-85
2024/01/23 13:18:36;;;;;;;0.57;0.57;;;;;;;;;;5087340;28;20052;-84
2024/01/23 13:21:03;;;;;;;0.60;0.60;;;;;;;;;;5077922;28;20040;-85
2024/01/23 13:23:31;;;;;;;0.65;0.65;;;;;;;;;;5088018;28;20418;-85
2024/01/23 13:25:58;;;;;;;0.47;0.47;;;;;;;;;;5086730;28;20048;-85
2024/01/23 13:28:26;;;;;;;4.47;1.02;;;;;;;;;;5078953;28;20036;-85
2024/01/23 13:30:55;;;;;;;0.32;0.32;;;;;;;;;;5071556;28;20513;-85
2024/01/23 13:33:29;;;;;;;0.30;0.30;;;;;;;;;;5083126;28;20059;-85
2024/01/23 13:35:56;;;;;;;0.10;0.10;;;;;;;;;;5087739;28;20048;-85
2024/01/23 13:38:26;;;;;;;0.20;0.20;;;;;;;;;;5087612;28;20076;-85
2024/01/23 13:40:53;;;;;;;0.63;0.60;;;;;;;;;;5085952;28;20024;-85
2024/01/23 13:43:20;;;;;;;0.60;0.60;;;;;;;;;;5074825;28;20498;-86
2024/01/23 13:45:48;;;;;;;8.10;0.40;;;;;;;;;;5089126;28;20078;-85
2024/01/23 13:48:15;;;;;;;0.20;0.20;;;;;;;;;;5064386;28;20040;-84
2024/01/23 13:50:45;;;;;;;0.28;0.28;;;;;;;;;;5054761;28;20049;-84
2024/01/23 13:53:13;;;;;;;0.38;0.38;;;;;;;;;;5085944;28;20048;-85
2024/01/23 13:55:41;;;;;;;0.50;0.35;;;;;;;;;;5085703;28;20119;-85
2024/01/23 13:58:09;;;;;;;0.38;0.38;;;;;;;;;;5084043;28;20048;-87
2024/01/23 14:00:36;;;;;;;0.17;0.17;;;;;;;;;;5081723;28;20055;-86
2024/01/23 14:03:04;;;;;;;2.65;0.85;;;;;;;;;;5070821;28;20052;-87
2024/01/23 14:05:31;;;;;;;0.50;0.40;;;;;;;;;;5074569;28;20059;-87
2024/01/23 14:07:59;;;;;;;0.50;0.50;;;;;;;;;;5083189;28;20060;-87
2024/01/23 14:10:28;;;;;;;0.10;0.10;;;;;;;;;;5076655;28;20037;-86
2024/01/23 14:12:55;;;;;;;0.10;0.10;;;;;;;;;;5071088;28;20040;-86
2024/01/23 14:15:24;;;;;;;0.10;0.10;;;;;;;;;;5068533;28;20102;-87
2024/01/23 14:17:51;;;;;;;0.10;0.10;;;;;;;;;;5083193;28;20062;-86
2024/01/23 14:20:20;;;;;;;0.10;0.10;;;;;;;;;;5079775;28;20044;-86
2024/01/23 14:22:48;;;;;;;0.10;0.10;;;;;;;;;;5088963;28;20502;-86
2024/01/23 14:25:18;;;;;;;0.20;0.20;;;;;;;;;;5079434;28;20049;-86
2024/01/23 14:27:48;;;;;;;0.43;0.43;;;;;;;;;;5074258;28;20049;-86
2024/01/23 14:30:16;;;;;;;1.85;0.95;;;;;;;;;;5077816;28;20041;-86
2024/01/23 14:32:44;;;;;;;0.43;0.22;;;;;;;;;;5078481;28;20119;-85
2024/01/23 14:35:15;;;;;;;0.10;0.10;;;;;;;;;;5085233;28;20089;-86
2024/01/23 14:37:43;;;;;;;0.13;0.13;;;;;;;;;;5084951;28;20047;-86
2024/01/23 14:40:11;;;;;;;0.10;0.10;;;;;;;;;;5076591;28;20044;-86
2024/01/23 14:42:40;;;;;;;0.77;0.52;;;;;;;;;;5053174;28;20068;-86
2024/01/23 14:45:08;;;;;;;0.30;0.30;;;;;;;;;;5062351;28;20037;-87
2024/01/23 14:47:40;;;;;;;0.80;0.52;;;;;;;;;;5076868;28;20040;-86
2024/01/23 14:50:08;;;;;;;0.30;0.30;;;;;;;;;;5075965;28;20076;-87